createdAt,value
2019-02-24T00:03:54.728Z," 4.66"
2019-02-24T00:08:51.071Z," 4.45"
2019-02-24T00:13:46.308Z," 4.50"
2019-02-24T00:18:41.939Z," 4.40"
2019-02-24T00:23:37.547Z," 4.55"
2019-02-24T00:28:34.233Z," 4.52"
2019-02-24T00:33:29.505Z," 4.50"
2019-02-24T00:38:25.048Z," 4.53"
2019-02-24T00:43:20.388Z," 4.48"
2019-02-24T00:48:16.751Z," 4.31"
2019-02-24T00:53:12.377Z," 4.16"
2019-02-24T00:58:15.974Z," 4.16"
2019-02-24T01:03:06.811Z," 4.13"
2019-02-24T01:08:02.206Z," 4.05"
2019-02-24T01:12:57.673Z," 3.98"
2019-02-24T01:17:53.898Z," 3.96"
2019-02-24T01:22:49.794Z," 3.99"
2019-02-24T01:27:45.364Z," 3.96"
2019-02-24T01:32:40.821Z," 3.91"
2019-02-24T01:37:36.408Z," 4.06"
2019-02-24T01:42:31.861Z," 3.92"
2019-02-24T01:47:27.217Z," 3.99"
2019-02-24T01:52:22.871Z," 3.96"
2019-02-24T01:57:18.637Z," 3.84"
2019-02-24T02:02:14.269Z," 3.84"
2019-02-24T02:07:10.056Z," 3.84"
2019-02-24T02:12:05.795Z," 3.81"
2019-02-24T02:17:01.539Z," 3.81"
2019-02-24T02:21:56.771Z," 3.78"
2019-02-24T02:26:53.669Z," 3.83"
2019-02-24T02:31:49.853Z," 3.65"
2019-02-24T02:36:45.012Z," 3.56"
2019-02-24T02:41:40.419Z," 3.41"
2019-02-24T02:46:35.987Z," 3.32"
2019-02-24T02:51:31.567Z," 3.29"
2019-02-24T02:56:28.045Z," 3.11"
2019-02-24T03:01:23.089Z," 3.32"
2019-02-24T03:06:18.905Z," 3.26"
2019-02-24T03:11:14.525Z," 3.26"
2019-02-24T03:16:10.636Z," 3.26"
2019-02-24T03:21:06.221Z," 3.34"
2019-02-24T03:26:01.810Z," 3.58"
2019-02-24T03:30:57.415Z," 3.60"
2019-02-24T03:35:53.165Z," 3.51"
2019-02-24T03:40:48.836Z," 3.62"
2019-02-24T03:45:44.355Z," 3.48"
2019-02-24T03:50:39.768Z," 3.40"
2019-02-24T03:55:35.311Z," 3.34"
2019-02-24T04:00:31.047Z," 3.36"
2019-02-24T04:05:27.739Z," 3.32"
2019-02-24T04:10:22.909Z," 3.05"
2019-02-24T04:15:19.178Z," 3.04"
2019-02-24T04:20:15.641Z," 2.95"
2019-02-24T04:25:11.476Z," 2.87"
2019-02-24T04:30:07.136Z," 2.64"
2019-02-24T04:35:03.769Z," 2.67"
2019-02-24T04:39:58.988Z," 2.79"
2019-02-24T04:44:54.737Z," 2.80"
2019-02-24T04:49:50.884Z," 2.93"
2019-02-24T04:54:46.380Z," 3.00"
2019-02-24T04:59:42.067Z," 2.97"
2019-02-24T05:04:37.455Z," 3.01"
2019-02-24T05:09:33.486Z," 3.13"
2019-02-24T05:14:29.113Z," 3.19"
2019-02-24T05:19:24.914Z," 3.37"
2019-02-24T05:24:20.548Z," 3.40"
2019-02-24T05:29:16.978Z," 3.34"
2019-02-24T05:34:12.366Z," 3.34"
2019-02-24T05:39:09.023Z," 3.10"
2019-02-24T05:44:04.151Z," 2.87"
2019-02-24T05:49:00.684Z," 2.86"
2019-02-24T05:53:55.855Z," 2.85"
2019-02-24T05:58:51.240Z," 2.77"
2019-02-24T06:03:47.762Z," 2.62"
2019-02-24T06:08:43.649Z," 2.60"
2019-02-24T06:13:39.158Z," 2.86"
2019-02-24T06:18:35.995Z," 3.22"
2019-02-24T06:23:31.399Z," 3.29"
2019-02-24T06:28:27.087Z," 3.29"
2019-02-24T06:33:23.682Z," 3.23"
2019-02-24T06:38:18.902Z," 3.11"
2019-02-24T06:43:15.407Z," 3.10"
2019-02-24T06:48:11.766Z," 2.98"
2019-02-24T06:53:07.149Z," 2.86"
2019-02-24T06:58:03.789Z," 2.62"
2019-02-24T07:02:58.903Z," 2.57"
2019-02-24T07:07:54.420Z," 2.69"
2019-02-24T07:12:50.057Z," 2.79"
2019-02-24T07:17:46.234Z," 2.95"
2019-02-24T07:22:41.952Z," 3.04"
2019-02-24T07:27:37.639Z," 3.16"
2019-02-24T07:32:34.365Z," 3.40"
2019-02-24T07:37:29.715Z," 3.65"
2019-02-24T07:42:25.444Z," 3.98"
2019-02-24T07:47:21.598Z," 3.98"
2019-02-24T07:52:17.741Z," 4.20"
2019-02-24T07:57:13.498Z," 4.40"
2019-02-24T08:02:11.085Z," 4.42"
2019-02-24T08:07:07.653Z," 4.66"
2019-02-24T08:12:03.915Z," 4.99"
2019-02-24T08:16:59.794Z," 5.23"
2019-02-24T08:21:56.427Z," 5.32"
2019-02-24T08:26:53.214Z," 5.50"
2019-02-24T08:31:49.222Z," 5.54"
2019-02-24T08:36:45.707Z," 5.61"
2019-02-24T08:41:42.210Z," 5.72"
2019-02-24T08:46:37.569Z," 5.91"
2019-02-24T08:51:34.686Z," 5.98"
2019-02-24T08:56:30.705Z," 6.14"
2019-02-24T09:01:27.713Z," 6.49"
2019-02-24T09:06:25.083Z," 6.69"
2019-02-24T09:11:20.586Z," 7.03"
2019-02-24T09:16:16.338Z," 7.14"
2019-02-24T09:21:12.145Z," 7.43"
2019-02-24T09:26:07.875Z," 7.67"
2019-02-24T09:31:04.535Z," 7.80"
2019-02-24T09:36:01.053Z," 7.87"
2019-02-24T09:40:57.175Z," 8.19"
2019-02-24T09:45:53.637Z," 8.49"
2019-02-24T09:50:49.403Z," 8.84"
2019-02-24T09:55:46.310Z," 9.18"
2019-02-24T10:00:43.397Z," 9.59"
2019-02-24T10:05:39.761Z," 9.89"
2019-02-24T10:10:35.764Z," 9.95"
2019-02-24T10:15:31.636Z,10.31
2019-02-24T10:20:27.777Z,10.35
2019-02-24T10:25:24.878Z,10.76
2019-02-24T10:30:21.086Z,10.82
2019-02-24T10:35:17.179Z,10.96
2019-02-24T10:40:12.707Z,11.05
2019-02-24T10:45:08.826Z,11.37
2019-02-24T10:50:04.941Z,11.57
2019-02-24T10:55:00.759Z,11.77
2019-02-24T10:59:56.826Z,12.29
2019-02-24T11:04:53.000Z,12.40
2019-02-24T11:09:48.918Z,12.37
2019-02-24T11:14:44.784Z,12.97
2019-02-24T11:19:40.894Z,13.08
2019-02-24T11:24:36.987Z,13.35
2019-02-24T11:29:34.552Z,13.81
2019-02-24T11:34:30.732Z,14.10
2019-02-24T11:39:26.919Z,14.69
2019-02-24T11:44:24.446Z,15.10
2019-02-24T11:49:20.370Z,15.24
2019-02-24T11:54:17.754Z,15.33
2019-02-24T11:59:13.342Z,14.99
2019-02-24T12:04:08.827Z,14.78
2019-02-24T12:09:05.431Z,14.73
2019-02-24T12:14:01.101Z,14.41
2019-02-24T12:18:57.664Z,14.30
2019-02-24T12:23:53.035Z,14.15
2019-02-24T12:28:50.644Z,14.47
2019-02-24T12:33:45.884Z,14.54
2019-02-24T12:38:41.778Z,14.48
2019-02-24T12:43:37.690Z,14.68
2019-02-24T12:48:34.017Z,14.85
2019-02-24T12:53:29.632Z,14.99
2019-02-24T12:58:25.524Z,14.79
2019-02-24T13:03:23.960Z,14.65
2019-02-24T13:08:19.525Z,14.79
2019-02-24T13:13:15.382Z,14.73
2019-02-24T13:18:12.045Z,14.59
2019-02-24T13:23:07.495Z,14.59
2019-02-24T13:28:03.247Z,14.33
2019-02-24T13:32:58.957Z,14.47
2019-02-24T13:37:55.994Z,14.68
2019-02-24T13:42:52.751Z,14.86
2019-02-24T13:47:48.370Z,14.96
2019-02-24T13:52:44.179Z,15.14
2019-02-24T13:57:41.141Z,15.42
2019-02-24T14:02:37.087Z,15.88
2019-02-24T14:07:33.583Z,15.88
2019-02-24T14:12:29.802Z,15.94
2019-02-24T14:17:25.712Z,16.16
2019-02-24T14:22:22.993Z,16.13
2019-02-24T14:27:18.357Z,15.91
2019-02-24T14:32:13.701Z,15.59
2019-02-24T14:37:09.699Z,15.35
2019-02-24T14:42:05.271Z,15.02
2019-02-24T14:47:01.186Z,14.97
2019-02-24T14:51:57.320Z,14.97
2019-02-24T14:56:53.103Z,14.99
2019-02-24T15:01:48.769Z,14.89
2019-02-24T15:06:44.420Z,14.88
2019-02-24T15:11:40.058Z,14.88
2019-02-24T15:16:36.120Z,14.84
2019-02-24T15:21:31.934Z,14.77
2019-02-24T15:26:29.227Z,14.77
2019-02-24T15:31:25.705Z,14.62
2019-02-24T15:36:21.066Z,14.62
2019-02-24T15:41:17.020Z,14.82
2019-02-24T15:46:14.150Z,14.79
2019-02-24T15:51:10.730Z,14.66
2019-02-24T15:56:06.198Z,14.72
2019-02-24T16:01:02.146Z,14.54
2019-02-24T16:05:58.238Z,14.55
2019-02-24T16:10:55.023Z,14.58
2019-02-24T16:15:50.671Z,14.45
2019-02-24T16:20:46.518Z,14.32
2019-02-24T16:25:42.762Z,14.36
2019-02-24T16:30:39.391Z,14.11
2019-02-24T16:35:34.767Z,13.78
2019-02-24T16:40:31.148Z,13.60
2019-02-24T16:45:26.655Z,13.38
2019-02-24T16:50:22.324Z,13.05
2019-02-24T16:55:17.807Z,12.94
2019-02-24T17:00:13.461Z,12.57
2019-02-24T17:05:13.290Z,12.36
2019-02-24T17:10:07.800Z,12.18
2019-02-24T17:15:04.533Z,11.87
2019-02-24T17:19:59.817Z,11.70
2019-02-24T17:24:55.209Z,11.69
2019-02-24T17:29:51.128Z,11.60
2019-02-24T17:34:46.774Z,11.43
2019-02-24T17:39:43.581Z,11.27
2019-02-24T17:44:38.650Z,11.04
2019-02-24T17:49:34.689Z,10.96
2019-02-24T17:54:30.436Z,10.76
2019-02-24T17:59:25.962Z,10.68
2019-02-24T18:04:21.815Z,10.63
2019-02-24T18:09:17.569Z,10.53
2019-02-24T18:14:14.230Z,10.41
2019-02-24T18:19:09.704Z,10.38
2019-02-24T18:24:05.452Z,10.20
2019-02-24T18:29:02.545Z,10.20
2019-02-24T18:33:59.055Z," 9.99"
2019-02-24T18:38:55.407Z," 9.87"
2019-02-24T18:43:51.657Z," 9.95"
2019-02-24T18:48:47.315Z," 9.82"
2019-02-24T18:53:44.185Z," 9.72"
2019-02-24T18:58:39.570Z," 9.80"
2019-02-24T19:03:35.413Z," 9.80"
2019-02-24T19:08:32.344Z," 9.86"
2019-02-24T19:13:27.584Z,10.15
2019-02-24T19:18:23.555Z,10.13
2019-02-24T19:23:21.349Z," 9.97"
2019-02-24T19:28:16.712Z," 9.83"
2019-02-24T19:33:12.218Z," 9.65"
2019-02-24T19:38:07.920Z," 9.73"
2019-02-24T19:43:04.441Z," 9.58"
2019-02-24T19:47:59.725Z," 9.39"
2019-02-24T19:52:56.566Z," 9.22"
2019-02-24T19:57:53.040Z," 9.25"
2019-02-24T20:02:49.571Z," 9.04"
2019-02-24T20:07:44.855Z," 9.02"
2019-02-24T20:12:40.834Z," 8.91"
2019-02-24T20:17:37.479Z," 8.88"
2019-02-24T20:22:34.270Z," 8.82"
2019-02-24T20:27:30.074Z," 8.84"
2019-02-24T20:32:25.852Z," 8.85"
2019-02-24T20:37:21.903Z," 8.71"
2019-02-24T20:42:17.600Z," 8.66"
2019-02-24T20:47:13.949Z," 8.58"
2019-02-24T20:52:10.751Z," 8.51"
2019-02-24T20:57:07.003Z," 8.45"
2019-02-24T21:02:03.457Z," 8.38"
2019-02-24T21:06:58.929Z," 8.45"
2019-02-24T21:11:55.736Z," 8.38"
2019-02-24T21:16:51.306Z," 8.37"
2019-02-24T21:21:46.907Z," 8.53"
2019-02-24T21:26:43.727Z," 8.30"
2019-02-24T21:31:39.168Z," 8.20"
2019-02-24T21:36:35.798Z," 8.46"
2019-02-24T21:41:31.829Z," 8.31"
2019-02-24T21:46:28.472Z," 8.30"
2019-02-24T21:51:23.867Z," 8.30"
2019-02-24T21:56:20.667Z," 8.27"
2019-02-24T22:01:16.371Z," 8.03"
2019-02-24T22:06:13.062Z," 8.19"
2019-02-24T22:11:08.151Z," 8.20"
2019-02-24T22:16:03.974Z," 8.12"
2019-02-24T22:20:59.807Z," 7.85"
2019-02-24T22:25:55.396Z," 7.90"
2019-02-24T22:30:51.004Z," 7.91"
2019-02-24T22:35:46.238Z," 7.83"
2019-02-24T22:40:43.993Z," 7.85"
2019-02-24T22:45:39.238Z," 7.69"
2019-02-24T22:50:35.891Z," 7.66"
2019-02-24T22:55:31.352Z," 7.66"
2019-02-24T23:00:27.192Z," 7.58"
2019-02-24T23:05:23.544Z," 7.60"
2019-02-24T23:10:20.047Z," 7.42"
2019-02-24T23:15:16.766Z," 7.48"
2019-02-24T23:20:13.088Z," 7.58"
2019-02-24T23:25:09.165Z," 7.60"
2019-02-24T23:30:04.461Z," 7.50"
2019-02-24T23:35:02.053Z," 7.43"
2019-02-24T23:39:57.401Z," 7.32"
2019-02-24T23:44:53.191Z," 7.33"
2019-02-24T23:49:49.873Z," 7.29"
2019-02-24T23:54:46.400Z," 7.33"
2019-02-24T23:59:42.128Z," 7.20"
